sensor_id;sensor_type;location;lat;lon;timestamp;P1;durP1;ratioP1;P2;durP2;ratioP2
31087;SDS011;17745;55.914;37.554;2022-09-19T00:01:26;10.02;;;5.78;;
31087;SDS011;17745;55.914;37.554;2022-09-19T00:03:57;9.38;;;6.30;;
31087;SDS011;17745;55.914;37.554;2022-09-19T00:06:26;9.55;;;6.62;;
31087;SDS011;17745;55.914;37.554;2022-09-19T00:08:55;14.25;;;7.95;;
31087;SDS011;17745;55.914;37.554;2022-09-19T00:11:24;10.52;;;6.15;;
31087;SDS011;17745;55.914;37.554;2022-09-19T00:13:54;12.93;;;7.22;;
31087;SDS011;17745;55.914;37.554;2022-09-19T00:16:25;16.62;;;6.32;;
31087;SDS011;17745;55.914;37.554;2022-09-19T00:18:55;12.55;;;6.75;;
31087;SDS011;17745;55.914;37.554;2022-09-19T00:21:25;12.45;;;6.72;;
31087;SDS011;17745;55.914;37.554;2022-09-19T00:23:54;9.63;;;6.03;;
31087;SDS011;17745;55.914;37.554;2022-09-19T00:26:39;12.45;;;7.47;;
31087;SDS011;17745;55.914;37.554;2022-09-19T00:29:09;10.75;;;5.90;;
31087;SDS011;17745;55.914;37.554;2022-09-19T00:31:36;11.77;;;5.62;;
31087;SDS011;17745;55.914;37.554;2022-09-19T00:34:04;10.80;;;5.78;;
31087;SDS011;17745;55.914;37.554;2022-09-19T00:36:32;10.57;;;5.85;;
31087;SDS011;17745;55.914;37.554;2022-09-19T00:39:00;9.68;;;6.25;;
31087;SDS011;17745;55.914;37.554;2022-09-19T00:41:29;13.15;;;5.80;;
31087;SDS011;17745;55.914;37.554;2022-09-19T00:43:57;15.00;;;5.35;;
31087;SDS011;17745;55.914;37.554;2022-09-19T00:46:29;7.70;;;5.00;;
31087;SDS011;17745;55.914;37.554;2022-09-19T00:49:00;11.70;;;5.37;;
31087;SDS011;17745;55.914;37.554;2022-09-19T00:51:32;7.93;;;5.25;;
31087;SDS011;17745;55.914;37.554;2022-09-19T00:54:03;12.85;;;4.97;;
31087;SDS011;17745;55.914;37.554;2022-09-19T00:56:35;12.02;;;4.85;;
31087;SDS011;17745;55.914;37.554;2022-09-19T00:59:03;11.93;;;5.70;;
31087;SDS011;17745;55.914;37.554;2022-09-19T01:01:32;10.95;;;5.50;;
31087;SDS011;17745;55.914;37.554;2022-09-19T01:04:00;11.23;;;5.65;;
31087;SDS011;17745;55.914;37.554;2022-09-19T01:06:37;11.68;;;5.18;;
31087;SDS011;17745;55.914;37.554;2022-09-19T01:09:12;9.90;;;5.80;;
31087;SDS011;17745;55.914;37.554;2022-09-19T01:12:06;10.35;;;5.32;;
31087;SDS011;17745;55.914;37.554;2022-09-19T01:14:52;10.05;;;5.10;;
31087;SDS011;17745;55.914;37.554;2022-09-19T01:20:14;13.05;;;4.85;;
31087;SDS011;17745;55.914;37.554;2022-09-19T01:22:55;11.40;;;5.28;;
31087;SDS011;17745;55.914;37.554;2022-09-19T01:25:42;11.00;;;5.78;;
31087;SDS011;17745;55.914;37.554;2022-09-19T01:28:18;10.95;;;6.25;;
31087;SDS011;17745;55.914;37.554;2022-09-19T01:30:50;8.88;;;5.28;;
31087;SDS011;17745;55.914;37.554;2022-09-19T01:33:36;9.70;;;6.47;;
31087;SDS011;17745;55.914;37.554;2022-09-19T01:36:06;10.27;;;6.20;;
31087;SDS011;17745;55.914;37.554;2022-09-19T01:38:41;9.75;;;6.60;;
31087;SDS011;17745;55.914;37.554;2022-09-19T01:41:11;9.15;;;6.65;;
31087;SDS011;17745;55.914;37.554;2022-09-19T01:43:41;9.82;;;7.12;;
31087;SDS011;17745;55.914;37.554;2022-09-19T01:46:10;10.40;;;6.95;;
31087;SDS011;17745;55.914;37.554;2022-09-19T01:48:45;10.45;;;8.18;;
31087;SDS011;17745;55.914;37.554;2022-09-19T01:51:21;12.13;;;7.60;;
31087;SDS011;17745;55.914;37.554;2022-09-19T01:54:00;11.07;;;7.32;;
31087;SDS011;17745;55.914;37.554;2022-09-19T01:56:49;8.52;;;7.43;;
31087;SDS011;17745;55.914;37.554;2022-09-19T01:59:29;10.35;;;8.70;;
31087;SDS011;17745;55.914;37.554;2022-09-19T02:02:10;9.20;;;7.53;;
31087;SDS011;17745;55.914;37.554;2022-09-19T02:04:49;10.52;;;8.13;;
31087;SDS011;17745;55.914;37.554;2022-09-19T02:07:25;12.23;;;8.40;;
31087;SDS011;17745;55.914;37.554;2022-09-19T02:09:59;10.30;;;8.88;;
31087;SDS011;17745;55.914;37.554;2022-09-19T02:12:34;12.43;;;9.30;;
31087;SDS011;17745;55.914;37.554;2022-09-19T02:15:11;10.60;;;9.50;;
31087;SDS011;17745;55.914;37.554;2022-09-19T02:17:45;12.65;;;9.32;;
31087;SDS011;17745;55.914;37.554;2022-09-19T02:20:18;13.97;;;9.33;;
31087;SDS011;17745;55.914;37.554;2022-09-19T02:22:51;10.73;;;8.98;;
31087;SDS011;17745;55.914;37.554;2022-09-19T02:25:24;11.55;;;8.38;;
31087;SDS011;17745;55.914;37.554;2022-09-19T02:27:59;12.45;;;8.63;;
31087;SDS011;17745;55.914;37.554;2022-09-19T02:30:33;11.57;;;8.50;;
31087;SDS011;17745;55.914;37.554;2022-09-19T02:33:02;16.20;;;8.90;;
31087;SDS011;17745;55.914;37.554;2022-09-19T02:35:35;11.80;;;8.38;;
31087;SDS011;17745;55.914;37.554;2022-09-19T02:38:11;11.80;;;8.82;;
31087;SDS011;17745;55.914;37.554;2022-09-19T02:40:47;10.50;;;7.95;;
31087;SDS011;17745;55.914;37.554;2022-09-19T02:43:22;13.73;;;8.57;;
31087;SDS011;17745;55.914;37.554;2022-09-19T02:46:00;12.80;;;8.75;;
31087;SDS011;17745;55.914;37.554;2022-09-19T02:48:36;14.95;;;10.15;;
31087;SDS011;17745;55.914;37.554;2022-09-19T02:51:12;13.02;;;8.77;;
31087;SDS011;17745;55.914;37.554;2022-09-19T02:53:46;12.30;;;8.60;;
31087;SDS011;17745;55.914;37.554;2022-09-19T02:56:18;15.30;;;9.88;;
31087;SDS011;17745;55.914;37.554;2022-09-19T02:58:54;12.02;;;9.10;;
31087;SDS011;17745;55.914;37.554;2022-09-19T03:01:31;12.18;;;8.30;;
31087;SDS011;17745;55.914;37.554;2022-09-19T03:04:02;12.20;;;8.93;;
31087;SDS011;17745;55.914;37.554;2022-09-19T03:06:44;11.35;;;8.45;;
31087;SDS011;17745;55.914;37.554;2022-09-19T03:09:20;13.90;;;8.02;;
31087;SDS011;17745;55.914;37.554;2022-09-19T03:11:53;11.95;;;8.07;;
31087;SDS011;17745;55.914;37.554;2022-09-19T03:14:33;13.25;;;7.55;;
31087;SDS011;17745;55.914;37.554;2022-09-19T03:17:03;13.85;;;8.07;;
31087;SDS011;17745;55.914;37.554;2022-09-19T03:19:33;11.80;;;7.28;;
31087;SDS011;17745;55.914;37.554;2022-09-19T03:22:02;12.18;;;7.37;;
31087;SDS011;17745;55.914;37.554;2022-09-19T03:24:32;12.32;;;7.07;;
31087;SDS011;17745;55.914;37.554;2022-09-19T03:27:03;10.93;;;6.53;;
31087;SDS011;17745;55.914;37.554;2022-09-19T03:29:31;9.85;;;7.30;;
31087;SDS011;17745;55.914;37.554;2022-09-19T03:31:59;11.55;;;6.53;;
31087;SDS011;17745;55.914;37.554;2022-09-19T03:34:28;14.30;;;6.93;;
31087;SDS011;17745;55.914;37.554;2022-09-19T03:36:57;15.93;;;7.05;;
31087;SDS011;17745;55.914;37.554;2022-09-19T03:39:26;10.50;;;7.00;;
31087;SDS011;17745;55.914;37.554;2022-09-19T03:41:55;8.88;;;6.65;;
31087;SDS011;17745;55.914;37.554;2022-09-19T03:44:27;8.98;;;6.82;;
31087;SDS011;17745;55.914;37.554;2022-09-19T03:46:56;13.35;;;6.20;;
31087;SDS011;17745;55.914;37.554;2022-09-19T03:49:24;8.95;;;5.57;;
31087;SDS011;17745;55.914;37.554;2022-09-19T03:52:00;9.45;;;6.40;;
31087;SDS011;17745;55.914;37.554;2022-09-19T04:11:48;9.23;;;4.95;;
31087;SDS011;17745;55.914;37.554;2022-09-19T04:14:22;6.75;;;4.43;;
31087;SDS011;17745;55.914;37.554;2022-09-19T04:16:54;10.73;;;4.70;;
31087;SDS011;17745;55.914;37.554;2022-09-19T04:19:22;7.25;;;3.47;;
31087;SDS011;17745;55.914;37.554;2022-09-19T04:21:55;7.65;;;3.80;;
31087;SDS011;17745;55.914;37.554;2022-09-19T04:24:27;6.80;;;3.10;;
31087;SDS011;17745;55.914;37.554;2022-09-19T04:48:30;3.40;;;1.12;;
31087;SDS011;17745;55.914;37.554;2022-09-19T04:55:52;2.72;;;1.12;;
31087;SDS011;17745;55.914;37.554;2022-09-19T04:59:51;2.35;;;1.00;;
31087;SDS011;17745;55.914;37.554;2022-09-19T06:04:31;9.93;;;1.40;;
31087;SDS011;17745;55.914;37.554;2022-09-19T06:07:30;1.75;;;1.12;;
31087;SDS011;17745;55.914;37.554;2022-09-19T06:10:22;5.82;;;1.50;;
31087;SDS011;17745;55.914;37.554;2022-09-19T06:13:11;3.47;;;1.40;;
31087;SDS011;17745;55.914;37.554;2022-09-19T06:16:19;4.97;;;1.50;;
31087;SDS011;17745;55.914;37.554;2022-09-19T06:19:18;4.95;;;1.15;;
31087;SDS011;17745;55.914;37.554;2022-09-19T06:22:04;4.45;;;1.37;;
31087;SDS011;17745;55.914;37.554;2022-09-19T06:24:41;1.50;;;1.02;;
31087;SDS011;17745;55.914;37.554;2022-09-19T06:27:36;8.40;;;1.40;;
31087;SDS011;17745;55.914;37.554;2022-09-19T06:30:19;4.75;;;1.35;;
31087;SDS011;17745;55.914;37.554;2022-09-19T06:33:07;2.70;;;1.20;;
31087;SDS011;17745;55.914;37.554;2022-09-19T06:35:46;3.58;;;1.20;;
31087;SDS011;17745;55.914;37.554;2022-09-19T06:41:31;5.37;;;1.60;;
31087;SDS011;17745;55.914;37.554;2022-09-19T06:44:22;4.43;;;1.30;;
31087;SDS011;17745;55.914;37.554;2022-09-19T06:47:19;6.60;;;1.80;;
31087;SDS011;17745;55.914;37.554;2022-09-19T06:50:09;2.42;;;1.42;;
31087;SDS011;17745;55.914;37.554;2022-09-19T06:53:07;3.65;;;1.20;;
31087;SDS011;17745;55.914;37.554;2022-09-19T06:56:32;1.92;;;1.08;;
31087;SDS011;17745;55.914;37.554;2022-09-19T06:59:32;1.95;;;1.20;;
31087;SDS011;17745;55.914;37.554;2022-09-19T07:02:37;2.97;;;1.20;;
31087;SDS011;17745;55.914;37.554;2022-09-19T07:06:04;3.70;;;1.10;;
31087;SDS011;17745;55.914;37.554;2022-09-19T07:09:34;5.28;;;1.27;;
31087;SDS011;17745;55.914;37.554;2022-09-19T07:16:32;3.03;;;1.37;;
31087;SDS011;17745;55.914;37.554;2022-09-19T07:23:09;2.30;;;1.30;;
31087;SDS011;17745;55.914;37.554;2022-09-19T07:26:19;2.80;;;1.33;;
31087;SDS011;17745;55.914;37.554;2022-09-19T07:28:56;5.95;;;1.40;;
31087;SDS011;17745;55.914;37.554;2022-09-19T07:35:29;5.87;;;1.50;;
31087;SDS011;17745;55.914;37.554;2022-09-19T07:38:32;1.75;;;1.20;;
31087;SDS011;17745;55.914;37.554;2022-09-19T07:41:51;2.25;;;1.15;;
31087;SDS011;17745;55.914;37.554;2022-09-19T07:45:17;3.75;;;1.40;;
31087;SDS011;17745;55.914;37.554;2022-09-19T07:48:34;5.97;;;1.02;;
31087;SDS011;17745;55.914;37.554;2022-09-19T07:51:42;1.67;;;1.08;;
31087;SDS011;17745;55.914;37.554;2022-09-19T07:54:56;5.25;;;1.27;;
31087;SDS011;17745;55.914;37.554;2022-09-19T07:58:00;2.12;;;1.12;;
31087;SDS011;17745;55.914;37.554;2022-09-19T08:00:33;5.25;;;1.02;;
31087;SDS011;17745;55.914;37.554;2022-09-19T08:03:06;4.12;;;0.90;;
31087;SDS011;17745;55.914;37.554;2022-09-19T08:05:38;1.80;;;1.00;;
31087;SDS011;17745;55.914;37.554;2022-09-19T08:08:09;8.02;;;1.20;;
31087;SDS011;17745;55.914;37.554;2022-09-19T08:10:38;4.82;;;1.10;;
31087;SDS011;17745;55.914;37.554;2022-09-19T08:13:09;9.95;;;1.10;;
31087;SDS011;17745;55.914;37.554;2022-09-19T08:15:38;4.28;;;1.27;;
31087;SDS011;17745;55.914;37.554;2022-09-19T08:18:06;7.03;;;1.27;;
31087;SDS011;17745;55.914;37.554;2022-09-19T08:24:04;4.37;;;1.00;;
31087;SDS011;17745;55.914;37.554;2022-09-19T08:27:17;3.37;;;1.20;;
31087;SDS011;17745;55.914;37.554;2022-09-19T08:30:12;3.03;;;1.30;;
31087;SDS011;17745;55.914;37.554;2022-09-19T08:32:43;2.55;;;1.10;;
31087;SDS011;17745;55.914;37.554;2022-09-19T08:35:12;1.17;;;1.00;;
31087;SDS011;17745;55.914;37.554;2022-09-19T08:37:55;5.32;;;1.40;;
31087;SDS011;17745;55.914;37.554;2022-09-19T08:46:58;5.50;;;1.30;;
31087;SDS011;17745;55.914;37.554;2022-09-19T08:52:22;1.92;;;1.08;;
31087;SDS011;17745;55.914;37.554;2022-09-19T08:55:16;5.30;;;2.60;;
31087;SDS011;17745;55.914;37.554;2022-09-19T08:58:22;2.55;;;1.15;;
31087;SDS011;17745;55.914;37.554;2022-09-19T09:01:31;7.43;;;1.50;;
31087;SDS011;17745;55.914;37.554;2022-09-19T09:04:37;6.55;;;1.85;;
31087;SDS011;17745;55.914;37.554;2022-09-19T09:07:37;8.40;;;1.40;;
31087;SDS011;17745;55.914;37.554;2022-09-19T09:10:21;9.63;;;1.52;;
31087;SDS011;17745;55.914;37.554;2022-09-19T09:13:05;4.00;;;1.67;;
31087;SDS011;17745;55.914;37.554;2022-09-19T09:15:56;4.62;;;1.20;;
31087;SDS011;17745;55.914;37.554;2022-09-19T09:22:12;6.15;;;1.40;;
31087;SDS011;17745;55.914;37.554;2022-09-19T09:24:49;2.40;;;1.35;;
31087;SDS011;17745;55.914;37.554;2022-09-19T09:27:40;2.33;;;1.35;;
31087;SDS011;17745;55.914;37.554;2022-09-19T09:30:16;4.40;;;1.30;;
31087;SDS011;17745;55.914;37.554;2022-09-19T09:35:30;4.90;;;1.10;;
31087;SDS011;17745;55.914;37.554;2022-09-19T09:38:12;4.28;;;1.50;;
31087;SDS011;17745;55.914;37.554;2022-09-19T09:40:53;6.63;;;1.50;;
31087;SDS011;17745;55.914;37.554;2022-09-19T09:43:52;4.78;;;1.35;;
31087;SDS011;17745;55.914;37.554;2022-09-19T09:46:31;4.05;;;1.48;;
31087;SDS011;17745;55.914;37.554;2022-09-19T09:49:28;3.42;;;1.35;;
31087;SDS011;17745;55.914;37.554;2022-09-19T09:52:02;4.93;;;1.50;;
31087;SDS011;17745;55.914;37.554;2022-09-19T10:01:34;3.83;;;1.40;;
31087;SDS011;17745;55.914;37.554;2022-09-19T10:04:29;2.62;;;1.50;;
31087;SDS011;17745;55.914;37.554;2022-09-19T10:07:43;5.87;;;1.40;;
31087;SDS011;17745;55.914;37.554;2022-09-19T10:10:28;2.20;;;1.37;;
31087;SDS011;17745;55.914;37.554;2022-09-19T10:13:18;4.95;;;1.60;;
31087;SDS011;17745;55.914;37.554;2022-09-19T10:19:55;2.87;;;1.30;;
31087;SDS011;17745;55.914;37.554;2022-09-19T10:26:26;3.35;;;1.30;;
31087;SDS011;17745;55.914;37.554;2022-09-19T10:32:34;3.60;;;1.10;;
31087;SDS011;17745;55.914;37.554;2022-09-19T10:38:45;5.93;;;2.37;;
31087;SDS011;17745;55.914;37.554;2022-09-19T10:41:17;2.37;;;1.20;;
31087;SDS011;17745;55.914;37.554;2022-09-19T10:44:03;2.90;;;1.30;;
31087;SDS011;17745;55.914;37.554;2022-09-19T10:46:36;5.80;;;2.53;;
31087;SDS011;17745;55.914;37.554;2022-09-19T10:49:19;5.37;;;1.85;;
31087;SDS011;17745;55.914;37.554;2022-09-19T10:52:10;5.55;;;1.80;;
31087;SDS011;17745;55.914;37.554;2022-09-19T10:55:02;2.12;;;1.37;;
31087;SDS011;17745;55.914;37.554;2022-09-19T10:57:39;3.30;;;1.67;;
31087;SDS011;17745;55.914;37.554;2022-09-19T11:00:21;4.00;;;1.80;;
31087;SDS011;17745;55.914;37.554;2022-09-19T11:02:55;4.22;;;1.87;;
31087;SDS011;17745;55.914;37.554;2022-09-19T11:05:27;3.90;;;2.00;;
31087;SDS011;17745;55.914;37.554;2022-09-19T11:08:21;4.43;;;1.80;;
31087;SDS011;17745;55.914;37.554;2022-09-19T11:10:56;3.65;;;1.50;;
31087;SDS011;17745;55.914;37.554;2022-09-19T11:13:26;6.77;;;1.70;;
31087;SDS011;17745;55.914;37.554;2022-09-19T11:15:57;3.87;;;1.30;;
31087;SDS011;17745;55.914;37.554;2022-09-19T11:21:35;7.85;;;1.40;;
31087;SDS011;17745;55.914;37.554;2022-09-19T11:24:37;4.22;;;1.30;;
31087;SDS011;17745;55.914;37.554;2022-09-19T11:34:20;2.90;;;1.37;;
31087;SDS011;17745;55.914;37.554;2022-09-19T11:37:22;4.28;;;1.55;;
31087;SDS011;17745;55.914;37.554;2022-09-19T11:40:21;6.80;;;1.60;;
31087;SDS011;17745;55.914;37.554;2022-09-19T11:45:55;9.18;;;1.60;;
31087;SDS011;17745;55.914;37.554;2022-09-19T11:52:05;2.47;;;1.45;;
31087;SDS011;17745;55.914;37.554;2022-09-19T11:57:48;4.15;;;1.83;;
31087;SDS011;17745;55.914;37.554;2022-09-19T12:00:30;4.82;;;1.45;;
31087;SDS011;17745;55.914;37.554;2022-09-19T12:03:22;4.70;;;1.40;;
31087;SDS011;17745;55.914;37.554;2022-09-19T12:06:07;3.80;;;1.20;;
31087;SDS011;17745;55.914;37.554;2022-09-19T12:08:47;3.08;;;1.50;;
31087;SDS011;17745;55.914;37.554;2022-09-19T12:11:38;3.28;;;1.58;;
31087;SDS011;17745;55.914;37.554;2022-09-19T12:14:12;4.05;;;1.73;;
31087;SDS011;17745;55.914;37.554;2022-09-19T12:16:47;4.80;;;1.50;;
31087;SDS011;17745;55.914;37.554;2022-09-19T12:19:22;7.45;;;1.60;;
31087;SDS011;17745;55.914;37.554;2022-09-19T12:21:56;2.92;;;1.30;;
31087;SDS011;17745;55.914;37.554;2022-09-19T12:24:29;2.37;;;1.45;;
31087;SDS011;17745;55.914;37.554;2022-09-19T12:27:19;5.15;;;2.30;;
31087;SDS011;17745;55.914;37.554;2022-09-19T12:29:56;3.35;;;1.40;;
31087;SDS011;17745;55.914;37.554;2022-09-19T12:32:32;5.68;;;1.45;;
31087;SDS011;17745;55.914;37.554;2022-09-19T12:35:12;2.25;;;1.27;;
31087;SDS011;17745;55.914;37.554;2022-09-19T12:37:51;1.45;;;1.27;;
31087;SDS011;17745;55.914;37.554;2022-09-19T12:40:32;3.62;;;1.50;;
31087;SDS011;17745;55.914;37.554;2022-09-19T12:43:17;2.60;;;1.50;;
31087;SDS011;17745;55.914;37.554;2022-09-19T12:49:34;2.47;;;1.60;;
31087;SDS011;17745;55.914;37.554;2022-09-19T12:52:26;6.45;;;1.60;;
31087;SDS011;17745;55.914;37.554;2022-09-19T13:02:22;5.25;;;1.42;;
31087;SDS011;17745;55.914;37.554;2022-09-19T13:05:13;6.45;;;1.60;;
31087;SDS011;17745;55.914;37.554;2022-09-19T13:08:03;7.10;;;1.95;;
31087;SDS011;17745;55.914;37.554;2022-09-19T13:11:07;4.90;;;1.55;;
31087;SDS011;17745;55.914;37.554;2022-09-19T13:14:08;4.70;;;1.50;;
31087;SDS011;17745;55.914;37.554;2022-09-19T13:17:00;3.08;;;1.48;;
31087;SDS011;17745;55.914;37.554;2022-09-19T13:19:46;3.45;;;1.67;;
31087;SDS011;17745;55.914;37.554;2022-09-19T13:22:45;3.30;;;1.73;;
31087;SDS011;17745;55.914;37.554;2022-09-19T13:25:34;2.72;;;1.25;;
31087;SDS011;17745;55.914;37.554;2022-09-19T13:28:25;2.12;;;1.30;;
31087;SDS011;17745;55.914;37.554;2022-09-19T13:34:36;2.67;;;1.55;;
31087;SDS011;17745;55.914;37.554;2022-09-19T13:40:24;2.45;;;1.30;;
31087;SDS011;17745;55.914;37.554;2022-09-19T13:43:00;2.90;;;1.20;;
31087;SDS011;17745;55.914;37.554;2022-09-19T13:46:04;6.28;;;1.45;;
31087;SDS011;17745;55.914;37.554;2022-09-19T13:51:54;2.80;;;1.40;;
31087;SDS011;17745;55.914;37.554;2022-09-19T13:54:36;4.30;;;1.50;;
31087;SDS011;17745;55.914;37.554;2022-09-19T13:57:33;2.85;;;1.33;;
31087;SDS011;17745;55.914;37.554;2022-09-19T14:25:22;2.25;;;1.30;;
31087;SDS011;17745;55.914;37.554;2022-09-19T14:27:56;2.92;;;1.25;;
31087;SDS011;17745;55.914;37.554;2022-09-19T14:37:02;4.95;;;1.60;;
31087;SDS011;17745;55.914;37.554;2022-09-19T14:40:01;4.25;;;1.48;;
31087;SDS011;17745;55.914;37.554;2022-09-19T14:42:52;2.92;;;1.45;;
31087;SDS011;17745;55.914;37.554;2022-09-19T14:45:52;3.67;;;1.40;;
31087;SDS011;17745;55.914;37.554;2022-09-19T14:48:39;1.30;;;1.20;;
31087;SDS011;17745;55.914;37.554;2022-09-19T14:51:25;1.20;;;1.10;;
31087;SDS011;17745;55.914;37.554;2022-09-19T15:19:17;2.83;;;1.42;;
31087;SDS011;17745;55.914;37.554;2022-09-19T15:44:52;4.05;;;1.17;;
31087;SDS011;17745;55.914;37.554;2022-09-19T16:37:52;4.03;;;1.35;;
31087;SDS011;17745;55.914;37.554;2022-09-19T16:41:15;1.52;;;1.12;;
31087;SDS011;17745;55.914;37.554;2022-09-19T17:01:42;1.20;;;1.10;;
31087;SDS011;17745;55.914;37.554;2022-09-19T17:04:44;3.87;;;1.37;;
31087;SDS011;17745;55.914;37.554;2022-09-19T17:08:05;3.87;;;1.30;;
31087;SDS011;17745;55.914;37.554;2022-09-19T17:17:25;2.42;;;1.40;;
31087;SDS011;17745;55.914;37.554;2022-09-19T17:19:59;4.60;;;1.05;;
31087;SDS011;17745;55.914;37.554;2022-09-19T17:53:48;1.98;;;1.10;;
31087;SDS011;17745;55.914;37.554;2022-09-19T17:56:19;5.25;;;1.15;;
31087;SDS011;17745;55.914;37.554;2022-09-19T17:58:54;1.60;;;1.30;;
31087;SDS011;17745;55.914;37.554;2022-09-19T18:01:31;2.03;;;1.30;;
31087;SDS011;17745;55.914;37.554;2022-09-19T18:04:44;3.10;;;1.17;;
31087;SDS011;17745;55.914;37.554;2022-09-19T18:07:15;2.28;;;1.10;;
31087;SDS011;17745;55.914;37.554;2022-09-19T18:10:01;2.55;;;1.30;;
31087;SDS011;17745;55.914;37.554;2022-09-19T18:12:49;4.43;;;1.23;;
31087;SDS011;17745;55.914;37.554;2022-09-19T18:15:40;1.80;;;1.20;;
31087;SDS011;17745;55.914;37.554;2022-09-19T18:18:30;1.83;;;1.30;;
31087;SDS011;17745;55.914;37.554;2022-09-19T18:21:13;2.28;;;1.55;;
31087;SDS011;17745;55.914;37.554;2022-09-19T18:23:47;3.55;;;1.30;;
31087;SDS011;17745;55.914;37.554;2022-09-19T19:40:28;3.60;;;1.50;;
31087;SDS011;17745;55.914;37.554;2022-09-19T19:42:58;8.18;;;1.62;;
31087;SDS011;17745;55.914;37.554;2022-09-19T19:46:28;2.22;;;1.42;;
31087;SDS011;17745;55.914;37.554;2022-09-19T19:49:14;1.77;;;1.40;;
31087;SDS011;17745;55.914;37.554;2022-09-19T19:51:44;5.95;;;1.52;;
31087;SDS011;17745;55.914;37.554;2022-09-19T19:54:23;3.75;;;1.98;;
31087;SDS011;17745;55.914;37.554;2022-09-19T20:05:29;6.68;;;1.50;;
31087;SDS011;17745;55.914;37.554;2022-09-19T20:08:59;5.87;;;2.00;;
31087;SDS011;17745;55.914;37.554;2022-09-19T20:22:24;2.70;;;1.40;;
31087;SDS011;17745;55.914;37.554;2022-09-19T21:26:21;2.50;;;1.60;;
31087;SDS011;17745;55.914;37.554;2022-09-19T21:28:58;4.72;;;1.60;;
31087;SDS011;17745;55.914;37.554;2022-09-19T21:31:29;4.10;;;1.80;;
31087;SDS011;17745;55.914;37.554;2022-09-19T21:34:05;3.00;;;1.70;;
31087;SDS011;17745;55.914;37.554;2022-09-19T21:36:35;2.42;;;1.60;;
31087;SDS011;17745;55.914;37.554;2022-09-19T21:39:05;4.40;;;1.83;;
31087;SDS011;17745;55.914;37.554;2022-09-19T21:44:21;3.50;;;1.80;;
31087;SDS011;17745;55.914;37.554;2022-09-19T21:46:49;5.50;;;2.78;;
31087;SDS011;17745;55.914;37.554;2022-09-19T21:49:18;2.78;;;1.80;;
31087;SDS011;17745;55.914;37.554;2022-09-19T21:51:47;4.60;;;1.58;;
31087;SDS011;17745;55.914;37.554;2022-09-19T21:54:15;5.90;;;2.28;;
31087;SDS011;17745;55.914;37.554;2022-09-19T21:56:43;3.58;;;1.80;;
31087;SDS011;17745;55.914;37.554;2022-09-19T21:59:13;3.28;;;2.25;;
31087;SDS011;17745;55.914;37.554;2022-09-19T22:01:41;4.18;;;2.12;;
31087;SDS011;17745;55.914;37.554;2022-09-19T22:04:10;5.20;;;2.55;;
31087;SDS011;17745;55.914;37.554;2022-09-19T22:06:40;2.97;;;2.00;;
31087;SDS011;17745;55.914;37.554;2022-09-19T22:09:08;3.15;;;1.87;;
31087;SDS011;17745;55.914;37.554;2022-09-19T22:11:36;2.22;;;1.58;;
31087;SDS011;17745;55.914;37.554;2022-09-19T22:14:04;5.32;;;1.77;;
31087;SDS011;17745;55.914;37.554;2022-09-19T22:16:33;7.45;;;2.00;;
31087;SDS011;17745;55.914;37.554;2022-09-19T22:19:05;10.55;;;2.30;;
31087;SDS011;17745;55.914;37.554;2022-09-19T22:21:34;4.43;;;2.00;;
31087;SDS011;17745;55.914;37.554;2022-09-19T22:24:07;3.37;;;2.20;;
31087;SDS011;17745;55.914;37.554;2022-09-19T22:26:50;5.55;;;2.72;;
31087;SDS011;17745;55.914;37.554;2022-09-19T22:29:34;4.62;;;1.87;;
31087;SDS011;17745;55.914;37.554;2022-09-19T22:32:33;3.08;;;1.77;;
31087;SDS011;17745;55.914;37.554;2022-09-19T22:35:06;3.58;;;1.67;;
31087;SDS011;17745;55.914;37.554;2022-09-19T22:38:07;2.93;;;1.93;;
31087;SDS011;17745;55.914;37.554;2022-09-19T22:40:36;3.65;;;2.12;;
31087;SDS011;17745;55.914;37.554;2022-09-19T22:43:04;3.92;;;1.92;;
31087;SDS011;17745;55.914;37.554;2022-09-19T22:45:43;3.40;;;1.83;;
31087;SDS011;17745;55.914;37.554;2022-09-19T22:48:13;4.68;;;1.73;;
31087;SDS011;17745;55.914;37.554;2022-09-19T22:50:42;4.05;;;1.70;;
31087;SDS011;17745;55.914;37.554;2022-09-19T22:53:13;2.67;;;1.70;;
31087;SDS011;17745;55.914;37.554;2022-09-19T22:55:52;1.95;;;1.50;;
31087;SDS011;17745;55.914;37.554;2022-09-19T22:58:20;3.95;;;1.80;;
31087;SDS011;17745;55.914;37.554;2022-09-19T23:01:01;4.53;;;1.50;;
31087;SDS011;17745;55.914;37.554;2022-09-19T23:06:48;5.05;;;2.33;;
31087;SDS011;17745;55.914;37.554;2022-09-19T23:09:18;3.60;;;2.22;;
31087;SDS011;17745;55.914;37.554;2022-09-19T23:12:31;6.10;;;3.33;;
31087;SDS011;17745;55.914;37.554;2022-09-19T23:14:59;2.90;;;1.50;;
31087;SDS011;17745;55.914;37.554;2022-09-19T23:17:28;4.32;;;2.05;;
31087;SDS011;17745;55.914;37.554;2022-09-19T23:19:56;3.70;;;1.92;;
31087;SDS011;17745;55.914;37.554;2022-09-19T23:22:31;4.70;;;1.92;;
31087;SDS011;17745;55.914;37.554;2022-09-19T23:24:59;4.47;;;2.40;;
31087;SDS011;17745;55.914;37.554;2022-09-19T23:27:28;4.55;;;2.17;;
31087;SDS011;17745;55.914;37.554;2022-09-19T23:29:57;3.58;;;1.77;;
31087;SDS011;17745;55.914;37.554;2022-09-19T23:32:25;5.78;;;1.95;;
31087;SDS011;17745;55.914;37.554;2022-09-19T23:34:53;5.53;;;2.40;;
31087;SDS011;17745;55.914;37.554;2022-09-19T23:37:21;6.93;;;3.53;;
31087;SDS011;17745;55.914;37.554;2022-09-19T23:39:52;5.32;;;2.83;;
31087;SDS011;17745;55.914;37.554;2022-09-19T23:42:19;3.50;;;2.15;;
31087;SDS011;17745;55.914;37.554;2022-09-19T23:44:47;4.50;;;2.28;;
31087;SDS011;17745;55.914;37.554;2022-09-19T23:47:15;6.22;;;2.67;;
31087;SDS011;17745;55.914;37.554;2022-09-19T23:49:42;3.58;;;1.98;;
31087;SDS011;17745;55.914;37.554;2022-09-19T23:52:13;3.60;;;2.00;;
31087;SDS011;17745;55.914;37.554;2022-09-19T23:54:43;4.97;;;2.12;;
31087;SDS011;17745;55.914;37.554;2022-09-19T23:57:13;3.30;;;1.65;;
31087;SDS011;17745;55.914;37.554;2022-09-19T23:59:41;4.43;;;2.08;;
